sensor_id;sensor_type;location;lat;lon;timestamp;P1;durP1;ratioP1;P2;durP2;ratioP2
6947;SDS011;3513;47.664;9.162;2022-12-18T00:00:41;117.37;;;55.10;;
6947;SDS011;3513;47.664;9.162;2022-12-18T00:03:07;123.32;;;53.80;;
6947;SDS011;3513;47.664;9.162;2022-12-18T00:05:33;117.83;;;53.43;;
6947;SDS011;3513;47.664;9.162;2022-12-18T00:07:58;117.80;;;56.53;;
6947;SDS011;3513;47.664;9.162;2022-12-18T00:10:24;112.27;;;55.00;;
6947;SDS011;3513;47.664;9.162;2022-12-18T00:12:49;116.23;;;54.57;;
6947;SDS011;3513;47.664;9.162;2022-12-18T00:15:15;120.93;;;56.20;;
6947;SDS011;3513;47.664;9.162;2022-12-18T00:17:41;108.67;;;52.70;;
6947;SDS011;3513;47.664;9.162;2022-12-18T00:20:06;107.23;;;52.40;;
6947;SDS011;3513;47.664;9.162;2022-12-18T00:22:32;125.35;;;55.70;;
6947;SDS011;3513;47.664;9.162;2022-12-18T00:24:58;118.20;;;56.20;;
6947;SDS011;3513;47.664;9.162;2022-12-18T00:27:24;115.13;;;55.00;;
6947;SDS011;3513;47.664;9.162;2022-12-18T00:29:49;122.93;;;59.47;;
6947;SDS011;3513;47.664;9.162;2022-12-18T00:32:15;119.57;;;58.57;;
6947;SDS011;3513;47.664;9.162;2022-12-18T00:34:41;114.77;;;56.93;;
6947;SDS011;3513;47.664;9.162;2022-12-18T00:37:06;119.47;;;52.23;;
6947;SDS011;3513;47.664;9.162;2022-12-18T00:39:32;113.20;;;54.40;;
6947;SDS011;3513;47.664;9.162;2022-12-18T00:41:58;117.47;;;55.10;;
6947;SDS011;3513;47.664;9.162;2022-12-18T00:44:42;130.80;;;59.90;;
6947;SDS011;3513;47.664;9.162;2022-12-18T00:47:07;111.37;;;50.70;;
6947;SDS011;3513;47.664;9.162;2022-12-18T00:49:33;124.03;;;56.47;;
6947;SDS011;3513;47.664;9.162;2022-12-18T00:51:59;113.13;;;52.63;;
6947;SDS011;3513;47.664;9.162;2022-12-18T00:54:24;110.57;;;52.37;;
6947;SDS011;3513;47.664;9.162;2022-12-18T00:56:50;115.10;;;52.23;;
6947;SDS011;3513;47.664;9.162;2022-12-18T00:59:16;124.77;;;50.87;;
6947;SDS011;3513;47.664;9.162;2022-12-18T01:01:42;102.65;;;50.40;;
6947;SDS011;3513;47.664;9.162;2022-12-18T01:04:08;93.57;;;45.87;;
6947;SDS011;3513;47.664;9.162;2022-12-18T01:06:33;122.93;;;52.37;;
6947;SDS011;3513;47.664;9.162;2022-12-18T01:08:59;108.90;;;48.30;;
6947;SDS011;3513;47.664;9.162;2022-12-18T01:11:25;118.33;;;48.80;;
6947;SDS011;3513;47.664;9.162;2022-12-18T01:13:51;107.47;;;47.13;;
6947;SDS011;3513;47.664;9.162;2022-12-18T01:16:18;104.65;;;48.88;;
6947;SDS011;3513;47.664;9.162;2022-12-18T01:18:43;109.43;;;52.03;;
6947;SDS011;3513;47.664;9.162;2022-12-18T01:21:10;112.07;;;51.47;;
6947;SDS011;3513;47.664;9.162;2022-12-18T01:23:44;115.20;;;51.53;;
6947;SDS011;3513;47.664;9.162;2022-12-18T01:26:12;119.10;;;51.55;;
6947;SDS011;3513;47.664;9.162;2022-12-18T01:28:40;136.85;;;53.90;;
6947;SDS011;3513;47.664;9.162;2022-12-18T01:31:48;113.70;;;52.70;;
6947;SDS011;3513;47.664;9.162;2022-12-18T01:33:56;130.10;;;58.08;;
6947;SDS011;3513;47.664;9.162;2022-12-18T01:36:24;120.35;;;57.63;;
6947;SDS011;3513;47.664;9.162;2022-12-18T01:38:54;131.13;;;60.58;;
6947;SDS011;3513;47.664;9.162;2022-12-18T01:41:22;137.02;;;61.03;;
6947;SDS011;3513;47.664;9.162;2022-12-18T01:43:55;132.85;;;59.47;;
6947;SDS011;3513;47.664;9.162;2022-12-18T01:46:25;132.18;;;64.25;;
6947;SDS011;3513;47.664;9.162;2022-12-18T01:48:54;132.55;;;59.20;;
6947;SDS011;3513;47.664;9.162;2022-12-18T01:51:23;128.60;;;60.47;;
6947;SDS011;3513;47.664;9.162;2022-12-18T01:53:49;123.05;;;55.58;;
6947;SDS011;3513;47.664;9.162;2022-12-18T01:56:16;128.17;;;57.97;;
6947;SDS011;3513;47.664;9.162;2022-12-18T01:58:52;134.77;;;60.75;;
6947;SDS011;3513;47.664;9.162;2022-12-18T02:01:25;122.47;;;57.75;;
6947;SDS011;3513;47.664;9.162;2022-12-18T02:03:51;109.35;;;50.75;;
6947;SDS011;3513;47.664;9.162;2022-12-18T02:11:40;112.57;;;51.28;;
6947;SDS011;3513;47.664;9.162;2022-12-18T02:20:28;123.03;;;51.83;;
6947;SDS011;3513;47.664;9.162;2022-12-18T02:23:08;101.35;;;47.90;;
6947;SDS011;3513;47.664;9.162;2022-12-18T02:25:42;100.60;;;45.53;;
6947;SDS011;3513;47.664;9.162;2022-12-18T02:28:25;102.82;;;46.80;;
6947;SDS011;3513;47.664;9.162;2022-12-18T02:30:56;110.18;;;49.35;;
6947;SDS011;3513;47.664;9.162;2022-12-18T02:33:24;108.22;;;50.50;;
6947;SDS011;3513;47.664;9.162;2022-12-18T02:35:51;99.63;;;43.85;;
6947;SDS011;3513;47.664;9.162;2022-12-18T02:38:20;88.78;;;41.17;;
6947;SDS011;3513;47.664;9.162;2022-12-18T02:40:46;94.63;;;40.70;;
6947;SDS011;3513;47.664;9.162;2022-12-18T02:43:14;100.68;;;44.50;;
6947;SDS011;3513;47.664;9.162;2022-12-18T02:45:48;97.85;;;42.72;;
6947;SDS011;3513;47.664;9.162;2022-12-18T02:48:23;84.80;;;38.92;;
6947;SDS011;3513;47.664;9.162;2022-12-18T02:51:08;99.18;;;43.38;;
6947;SDS011;3513;47.664;9.162;2022-12-18T02:53:50;101.57;;;44.03;;
6947;SDS011;3513;47.664;9.162;2022-12-18T02:56:41;86.93;;;42.67;;
6947;SDS011;3513;47.664;9.162;2022-12-18T02:59:19;98.88;;;43.28;;
6947;SDS011;3513;47.664;9.162;2022-12-18T03:04:36;101.72;;;46.25;;
6947;SDS011;3513;47.664;9.162;2022-12-18T03:07:09;99.30;;;44.47;;
6947;SDS011;3513;47.664;9.162;2022-12-18T03:09:39;96.70;;;42.17;;
6947;SDS011;3513;47.664;9.162;2022-12-18T03:12:27;105.22;;;44.30;;
6947;SDS011;3513;47.664;9.162;2022-12-18T03:15:04;96.85;;;44.80;;
6947;SDS011;3513;47.664;9.162;2022-12-18T03:17:33;91.85;;;45.25;;
6947;SDS011;3513;47.664;9.162;2022-12-18T03:20:00;96.20;;;43.17;;
6947;SDS011;3513;47.664;9.162;2022-12-18T03:22:30;86.95;;;39.63;;
6947;SDS011;3513;47.664;9.162;2022-12-18T03:24:58;96.13;;;42.75;;
6947;SDS011;3513;47.664;9.162;2022-12-18T03:27:27;95.43;;;42.75;;
6947;SDS011;3513;47.664;9.162;2022-12-18T03:29:56;103.65;;;43.50;;
6947;SDS011;3513;47.664;9.162;2022-12-18T03:32:33;99.60;;;43.85;;
6947;SDS011;3513;47.664;9.162;2022-12-18T03:35:08;106.15;;;45.45;;
6947;SDS011;3513;47.664;9.162;2022-12-18T03:37:36;105.18;;;42.08;;
6947;SDS011;3513;47.664;9.162;2022-12-18T03:40:03;93.07;;;39.88;;
6947;SDS011;3513;47.664;9.162;2022-12-18T03:45:42;92.80;;;43.80;;
6947;SDS011;3513;47.664;9.162;2022-12-18T03:48:18;96.80;;;47.95;;
6947;SDS011;3513;47.664;9.162;2022-12-18T03:50:49;98.32;;;46.47;;
6947;SDS011;3513;47.664;9.162;2022-12-18T03:53:25;98.35;;;45.47;;
6947;SDS011;3513;47.664;9.162;2022-12-18T03:55:53;96.75;;;46.90;;
6947;SDS011;3513;47.664;9.162;2022-12-18T03:58:21;103.82;;;48.88;;
6947;SDS011;3513;47.664;9.162;2022-12-18T04:00:50;97.15;;;46.25;;
6947;SDS011;3513;47.664;9.162;2022-12-18T04:03:19;113.68;;;49.10;;
6947;SDS011;3513;47.664;9.162;2022-12-18T04:05:46;94.78;;;48.00;;
6947;SDS011;3513;47.664;9.162;2022-12-18T04:08:15;100.78;;;46.90;;
6947;SDS011;3513;47.664;9.162;2022-12-18T04:10:41;100.30;;;48.50;;
6947;SDS011;3513;47.664;9.162;2022-12-18T04:13:07;91.97;;;42.40;;
6947;SDS011;3513;47.664;9.162;2022-12-18T04:15:34;101.00;;;44.78;;
6947;SDS011;3513;47.664;9.162;2022-12-18T04:18:01;90.35;;;43.25;;
6947;SDS011;3513;47.664;9.162;2022-12-18T04:20:26;93.37;;;45.80;;
6947;SDS011;3513;47.664;9.162;2022-12-18T04:22:52;94.70;;;45.50;;
6947;SDS011;3513;47.664;9.162;2022-12-18T04:25:18;98.53;;;46.37;;
6947;SDS011;3513;47.664;9.162;2022-12-18T04:27:43;109.50;;;47.53;;
6947;SDS011;3513;47.664;9.162;2022-12-18T04:30:09;105.30;;;46.90;;
6947;SDS011;3513;47.664;9.162;2022-12-18T04:32:35;95.10;;;44.30;;
6947;SDS011;3513;47.664;9.162;2022-12-18T04:35:01;102.70;;;46.50;;
6947;SDS011;3513;47.664;9.162;2022-12-18T04:37:29;100.50;;;48.20;;
6947;SDS011;3513;47.664;9.162;2022-12-18T04:39:54;93.43;;;44.33;;
6947;SDS011;3513;47.664;9.162;2022-12-18T04:42:20;107.80;;;50.30;;
6947;SDS011;3513;47.664;9.162;2022-12-18T04:44:46;93.23;;;41.17;;
6947;SDS011;3513;47.664;9.162;2022-12-18T04:47:11;92.37;;;45.00;;
6947;SDS011;3513;47.664;9.162;2022-12-18T04:49:37;95.90;;;41.87;;
6947;SDS011;3513;47.664;9.162;2022-12-18T04:52:10;89.33;;;42.17;;
6947;SDS011;3513;47.664;9.162;2022-12-18T04:54:36;82.50;;;38.72;;
6947;SDS011;3513;47.664;9.162;2022-12-18T04:57:01;85.73;;;40.13;;
6947;SDS011;3513;47.664;9.162;2022-12-18T04:59:27;78.53;;;39.23;;
6947;SDS011;3513;47.664;9.162;2022-12-18T05:01:53;96.70;;;43.30;;
6947;SDS011;3513;47.664;9.162;2022-12-18T05:04:18;86.40;;;42.17;;
6947;SDS011;3513;47.664;9.162;2022-12-18T05:06:44;95.10;;;41.00;;
6947;SDS011;3513;47.664;9.162;2022-12-18T05:09:09;95.67;;;42.40;;
6947;SDS011;3513;47.664;9.162;2022-12-18T05:11:35;116.57;;;50.30;;
6947;SDS011;3513;47.664;9.162;2022-12-18T05:14:01;119.77;;;50.87;;
6947;SDS011;3513;47.664;9.162;2022-12-18T05:16:26;110.90;;;47.30;;
6947;SDS011;3513;47.664;9.162;2022-12-18T05:18:52;99.80;;;45.00;;
6947;SDS011;3513;47.664;9.162;2022-12-18T05:21:18;94.47;;;42.03;;
6947;SDS011;3513;47.664;9.162;2022-12-18T05:23:43;93.37;;;43.50;;
6947;SDS011;3513;47.664;9.162;2022-12-18T05:26:09;95.47;;;43.83;;
6947;SDS011;3513;47.664;9.162;2022-12-18T05:28:40;119.43;;;48.20;;
6947;SDS011;3513;47.664;9.162;2022-12-18T05:31:05;95.80;;;42.13;;
6947;SDS011;3513;47.664;9.162;2022-12-18T05:33:32;104.20;;;43.33;;
6947;SDS011;3513;47.664;9.162;2022-12-18T05:36:03;106.75;;;46.50;;
6947;SDS011;3513;47.664;9.162;2022-12-18T05:38:31;110.25;;;46.13;;
6947;SDS011;3513;47.664;9.162;2022-12-18T05:40:58;108.38;;;44.92;;
6947;SDS011;3513;47.664;9.162;2022-12-18T05:43:25;106.50;;;46.10;;
6947;SDS011;3513;47.664;9.162;2022-12-18T05:45:51;114.32;;;48.45;;
6947;SDS011;3513;47.664;9.162;2022-12-18T05:48:18;122.20;;;52.58;;
6947;SDS011;3513;47.664;9.162;2022-12-18T05:50:45;104.30;;;42.83;;
6947;SDS011;3513;47.664;9.162;2022-12-18T05:53:12;105.03;;;46.65;;
6947;SDS011;3513;47.664;9.162;2022-12-18T05:55:40;122.47;;;49.58;;
6947;SDS011;3513;47.664;9.162;2022-12-18T05:58:06;93.88;;;44.85;;
6947;SDS011;3513;47.664;9.162;2022-12-18T06:00:34;108.15;;;46.35;;
6947;SDS011;3513;47.664;9.162;2022-12-18T06:03:01;96.05;;;45.28;;
6947;SDS011;3513;47.664;9.162;2022-12-18T06:05:27;104.00;;;41.80;;
6947;SDS011;3513;47.664;9.162;2022-12-18T06:07:53;117.20;;;46.33;;
6947;SDS011;3513;47.664;9.162;2022-12-18T06:10:18;110.67;;;43.90;;
6947;SDS011;3513;47.664;9.162;2022-12-18T06:12:44;107.80;;;45.70;;
6947;SDS011;3513;47.664;9.162;2022-12-18T06:15:10;101.80;;;45.47;;
6947;SDS011;3513;47.664;9.162;2022-12-18T06:17:36;113.60;;;47.80;;
6947;SDS011;3513;47.664;9.162;2022-12-18T06:20:02;102.47;;;45.03;;
6947;SDS011;3513;47.664;9.162;2022-12-18T06:22:30;112.80;;;44.97;;
6947;SDS011;3513;47.664;9.162;2022-12-18T06:24:56;97.05;;;42.22;;
6947;SDS011;3513;47.664;9.162;2022-12-18T06:27:24;108.45;;;46.88;;
6947;SDS011;3513;47.664;9.162;2022-12-18T06:29:50;111.60;;;44.90;;
6947;SDS011;3513;47.664;9.162;2022-12-18T06:32:15;101.17;;;44.70;;
6947;SDS011;3513;47.664;9.162;2022-12-18T06:34:41;115.13;;;45.85;;
6947;SDS011;3513;47.664;9.162;2022-12-18T06:37:07;106.90;;;45.10;;
6947;SDS011;3513;47.664;9.162;2022-12-18T06:39:32;105.00;;;42.10;;
6947;SDS011;3513;47.664;9.162;2022-12-18T06:41:58;104.53;;;46.03;;
6947;SDS011;3513;47.664;9.162;2022-12-18T06:44:24;101.93;;;45.40;;
6947;SDS011;3513;47.664;9.162;2022-12-18T06:46:49;91.70;;;41.07;;
6947;SDS011;3513;47.664;9.162;2022-12-18T06:49:15;100.87;;;43.53;;
6947;SDS011;3513;47.664;9.162;2022-12-18T06:51:41;102.77;;;42.47;;
6947;SDS011;3513;47.664;9.162;2022-12-18T06:54:06;105.07;;;45.03;;
6947;SDS011;3513;47.664;9.162;2022-12-18T06:56:32;105.03;;;43.10;;
6947;SDS011;3513;47.664;9.162;2022-12-18T06:58:58;121.60;;;49.00;;
6947;SDS011;3513;47.664;9.162;2022-12-18T07:01:23;102.40;;;45.77;;
6947;SDS011;3513;47.664;9.162;2022-12-18T07:03:53;99.37;;;42.97;;
6947;SDS011;3513;47.664;9.162;2022-12-18T07:06:20;96.43;;;44.03;;
6947;SDS011;3513;47.664;9.162;2022-12-18T07:08:48;97.78;;;43.15;;
6947;SDS011;3513;47.664;9.162;2022-12-18T07:11:15;110.90;;;46.10;;
6947;SDS011;3513;47.664;9.162;2022-12-18T07:13:42;102.68;;;46.05;;
6947;SDS011;3513;47.664;9.162;2022-12-18T07:16:09;113.07;;;47.13;;
6947;SDS011;3513;47.664;9.162;2022-12-18T07:18:36;116.40;;;45.22;;
6947;SDS011;3513;47.664;9.162;2022-12-18T07:21:03;116.70;;;46.47;;
6947;SDS011;3513;47.664;9.162;2022-12-18T07:23:29;106.00;;;47.25;;
6947;SDS011;3513;47.664;9.162;2022-12-18T07:26:07;107.25;;;46.58;;
6947;SDS011;3513;47.664;9.162;2022-12-18T07:28:34;119.10;;;48.70;;
6947;SDS011;3513;47.664;9.162;2022-12-18T07:31:05;105.47;;;46.38;;
6947;SDS011;3513;47.664;9.162;2022-12-18T07:33:32;101.80;;;44.72;;
6947;SDS011;3513;47.664;9.162;2022-12-18T07:36:03;113.97;;;45.97;;
6947;SDS011;3513;47.664;9.162;2022-12-18T07:38:31;110.82;;;46.08;;
6947;SDS011;3513;47.664;9.162;2022-12-18T07:41:00;119.43;;;48.28;;
6947;SDS011;3513;47.664;9.162;2022-12-18T07:43:27;108.20;;;45.65;;
6947;SDS011;3513;47.664;9.162;2022-12-18T07:45:52;124.67;;;49.50;;
6947;SDS011;3513;47.664;9.162;2022-12-18T07:48:18;121.20;;;49.30;;
6947;SDS011;3513;47.664;9.162;2022-12-18T07:50:43;107.00;;;45.97;;
6947;SDS011;3513;47.664;9.162;2022-12-18T07:53:09;118.87;;;45.97;;
6947;SDS011;3513;47.664;9.162;2022-12-18T07:55:34;126.53;;;48.97;;
6947;SDS011;3513;47.664;9.162;2022-12-18T07:58:01;121.50;;;47.23;;
6947;SDS011;3513;47.664;9.162;2022-12-18T08:00:27;121.25;;;47.13;;
6947;SDS011;3513;47.664;9.162;2022-12-18T08:02:53;124.60;;;48.43;;
6947;SDS011;3513;47.664;9.162;2022-12-18T08:05:18;110.03;;;47.30;;
6947;SDS011;3513;47.664;9.162;2022-12-18T08:07:45;115.25;;;46.47;;
6947;SDS011;3513;47.664;9.162;2022-12-18T08:10:11;124.70;;;47.30;;
6947;SDS011;3513;47.664;9.162;2022-12-18T08:12:37;115.23;;;47.33;;
6947;SDS011;3513;47.664;9.162;2022-12-18T08:15:03;111.83;;;44.50;;
6947;SDS011;3513;47.664;9.162;2022-12-18T08:17:29;113.75;;;46.13;;
6947;SDS011;3513;47.664;9.162;2022-12-18T08:19:55;104.73;;;46.90;;
6947;SDS011;3513;47.664;9.162;2022-12-18T08:22:20;112.57;;;48.03;;
6947;SDS011;3513;47.664;9.162;2022-12-18T08:24:46;100.77;;;42.33;;
6947;SDS011;3513;47.664;9.162;2022-12-18T08:27:12;102.43;;;44.53;;
6947;SDS011;3513;47.664;9.162;2022-12-18T08:29:37;109.57;;;45.00;;
6947;SDS011;3513;47.664;9.162;2022-12-18T08:32:03;106.57;;;41.90;;
6947;SDS011;3513;47.664;9.162;2022-12-18T08:34:29;108.20;;;43.50;;
6947;SDS011;3513;47.664;9.162;2022-12-18T08:36:55;115.57;;;43.67;;
6947;SDS011;3513;47.664;9.162;2022-12-18T08:39:20;100.10;;;41.33;;
6947;SDS011;3513;47.664;9.162;2022-12-18T08:41:46;99.20;;;41.80;;
6947;SDS011;3513;47.664;9.162;2022-12-18T08:44:32;106.18;;;41.75;;
6947;SDS011;3513;47.664;9.162;2022-12-18T08:47:03;90.20;;;41.70;;
6947;SDS011;3513;47.664;9.162;2022-12-18T08:49:33;105.57;;;43.72;;
6947;SDS011;3513;47.664;9.162;2022-12-18T08:52:00;101.78;;;42.30;;
6947;SDS011;3513;47.664;9.162;2022-12-18T08:54:27;102.30;;;39.97;;
6947;SDS011;3513;47.664;9.162;2022-12-18T08:56:53;98.03;;;41.00;;
6947;SDS011;3513;47.664;9.162;2022-12-18T08:59:19;98.23;;;41.43;;
6947;SDS011;3513;47.664;9.162;2022-12-18T09:01:45;93.40;;;40.73;;
6947;SDS011;3513;47.664;9.162;2022-12-18T09:04:11;108.00;;;45.95;;
6947;SDS011;3513;47.664;9.162;2022-12-18T09:06:37;106.18;;;42.80;;
6947;SDS011;3513;47.664;9.162;2022-12-18T09:09:04;105.20;;;44.13;;
6947;SDS011;3513;47.664;9.162;2022-12-18T09:11:30;103.22;;;42.67;;
6947;SDS011;3513;47.664;9.162;2022-12-18T09:13:57;93.22;;;40.30;;
6947;SDS011;3513;47.664;9.162;2022-12-18T09:16:24;97.80;;;42.08;;
6947;SDS011;3513;47.664;9.162;2022-12-18T09:18:51;110.50;;;43.28;;
6947;SDS011;3513;47.664;9.162;2022-12-18T09:21:19;96.60;;;42.72;;
6947;SDS011;3513;47.664;9.162;2022-12-18T09:23:50;100.22;;;43.63;;
6947;SDS011;3513;47.664;9.162;2022-12-18T09:26:16;102.72;;;42.95;;
6947;SDS011;3513;47.664;9.162;2022-12-18T09:28:42;114.77;;;44.83;;
6947;SDS011;3513;47.664;9.162;2022-12-18T09:31:08;102.13;;;42.72;;
6947;SDS011;3513;47.664;9.162;2022-12-18T09:33:34;107.20;;;46.60;;
6947;SDS011;3513;47.664;9.162;2022-12-18T09:36:02;112.50;;;48.20;;
6947;SDS011;3513;47.664;9.162;2022-12-18T09:38:29;110.22;;;46.75;;
6947;SDS011;3513;47.664;9.162;2022-12-18T09:40:57;103.50;;;43.03;;
6947;SDS011;3513;47.664;9.162;2022-12-18T09:43:44;102.10;;;42.72;;
6947;SDS011;3513;47.664;9.162;2022-12-18T09:46:47;101.00;;;43.45;;
6947;SDS011;3513;47.664;9.162;2022-12-18T09:49:11;92.82;;;39.45;;
6947;SDS011;3513;47.664;9.162;2022-12-18T09:51:41;88.82;;;40.00;;
6947;SDS011;3513;47.664;9.162;2022-12-18T09:54:12;89.07;;;38.08;;
6947;SDS011;3513;47.664;9.162;2022-12-18T09:56:48;95.15;;;38.42;;
6947;SDS011;3513;47.664;9.162;2022-12-18T09:59:18;94.57;;;40.22;;
6947;SDS011;3513;47.664;9.162;2022-12-18T10:01:45;94.22;;;41.35;;
6947;SDS011;3513;47.664;9.162;2022-12-18T10:04:11;96.80;;;40.60;;
6947;SDS011;3513;47.664;9.162;2022-12-18T10:12:32;103.78;;;43.45;;
6947;SDS011;3513;47.664;9.162;2022-12-18T10:17:55;95.03;;;40.72;;
6947;SDS011;3513;47.664;9.162;2022-12-18T10:23:19;93.50;;;40.53;;
6947;SDS011;3513;47.664;9.162;2022-12-18T10:26:04;101.93;;;45.65;;
6947;SDS011;3513;47.664;9.162;2022-12-18T10:28:38;94.97;;;43.60;;
6947;SDS011;3513;47.664;9.162;2022-12-18T10:31:19;95.05;;;41.25;;
6947;SDS011;3513;47.664;9.162;2022-12-18T10:33:46;93.05;;;40.30;;
6947;SDS011;3513;47.664;9.162;2022-12-18T10:36:13;98.93;;;41.05;;
6947;SDS011;3513;47.664;9.162;2022-12-18T10:38:38;102.20;;;41.57;;
6947;SDS011;3513;47.664;9.162;2022-12-18T10:46:41;102.22;;;41.25;;
6947;SDS011;3513;47.664;9.162;2022-12-18T10:49:18;94.03;;;40.60;;
6947;SDS011;3513;47.664;9.162;2022-12-18T10:51:50;92.18;;;41.65;;
6947;SDS011;3513;47.664;9.162;2022-12-18T10:54:18;95.10;;;39.13;;
6947;SDS011;3513;47.664;9.162;2022-12-18T10:56:46;80.63;;;38.90;;
6947;SDS011;3513;47.664;9.162;2022-12-18T10:59:13;88.83;;;38.83;;
6947;SDS011;3513;47.664;9.162;2022-12-18T11:04:13;94.10;;;38.42;;
6947;SDS011;3513;47.664;9.162;2022-12-18T11:06:54;103.80;;;39.90;;
6947;SDS011;3513;47.664;9.162;2022-12-18T11:09:25;92.55;;;37.28;;
6947;SDS011;3513;47.664;9.162;2022-12-18T11:12:15;88.82;;;39.45;;
6947;SDS011;3513;47.664;9.162;2022-12-18T11:14:47;90.80;;;40.65;;
6947;SDS011;3513;47.664;9.162;2022-12-18T11:17:19;96.60;;;38.55;;
6947;SDS011;3513;47.664;9.162;2022-12-18T11:19:45;83.32;;;35.20;;
6947;SDS011;3513;47.664;9.162;2022-12-18T11:22:25;90.53;;;36.97;;
6947;SDS011;3513;47.664;9.162;2022-12-18T11:24:57;87.90;;;37.03;;
6947;SDS011;3513;47.664;9.162;2022-12-18T11:27:31;97.05;;;40.92;;
6947;SDS011;3513;47.664;9.162;2022-12-18T11:32:49;81.05;;;36.13;;
6947;SDS011;3513;47.664;9.162;2022-12-18T11:36:07;90.47;;;37.40;;
6947;SDS011;3513;47.664;9.162;2022-12-18T11:38:26;93.78;;;38.38;;
6947;SDS011;3513;47.664;9.162;2022-12-18T11:46:36;88.85;;;37.38;;
6947;SDS011;3513;47.664;9.162;2022-12-18T11:49:12;98.07;;;38.08;;
6947;SDS011;3513;47.664;9.162;2022-12-18T11:51:47;83.10;;;36.85;;
6947;SDS011;3513;47.664;9.162;2022-12-18T11:54:26;90.63;;;36.30;;
6947;SDS011;3513;47.664;9.162;2022-12-18T11:56:56;85.93;;;36.23;;
6947;SDS011;3513;47.664;9.162;2022-12-18T12:05:14;79.03;;;35.85;;
6947;SDS011;3513;47.664;9.162;2022-12-18T12:16:29;85.47;;;35.50;;
6947;SDS011;3513;47.664;9.162;2022-12-18T12:19:25;94.20;;;36.95;;
6947;SDS011;3513;47.664;9.162;2022-12-18T12:27:28;98.53;;;38.53;;
6947;SDS011;3513;47.664;9.162;2022-12-18T12:40:29;84.50;;;35.00;;
6947;SDS011;3513;47.664;9.162;2022-12-18T12:43:00;88.03;;;38.10;;
6947;SDS011;3513;47.664;9.162;2022-12-18T12:45:49;77.32;;;34.45;;
6947;SDS011;3513;47.664;9.162;2022-12-18T12:51:00;77.28;;;34.85;;
6947;SDS011;3513;47.664;9.162;2022-12-18T12:53:30;100.93;;;38.95;;
6947;SDS011;3513;47.664;9.162;2022-12-18T12:55:59;89.03;;;34.80;;
6947;SDS011;3513;47.664;9.162;2022-12-18T12:58:29;80.85;;;32.55;;
6947;SDS011;3513;47.664;9.162;2022-12-18T13:06:45;92.07;;;35.60;;
6947;SDS011;3513;47.664;9.162;2022-12-18T13:09:19;86.43;;;35.90;;
6947;SDS011;3513;47.664;9.162;2022-12-18T13:11:45;82.57;;;34.30;;
6947;SDS011;3513;47.664;9.162;2022-12-18T13:14:37;89.88;;;35.75;;
6947;SDS011;3513;47.664;9.162;2022-12-18T13:17:15;81.93;;;33.53;;
6947;SDS011;3513;47.664;9.162;2022-12-18T13:20:14;86.53;;;33.88;;
6947;SDS011;3513;47.664;9.162;2022-12-18T13:28:05;94.78;;;38.08;;
6947;SDS011;3513;47.664;9.162;2022-12-18T13:38:38;81.38;;;33.47;;
6947;SDS011;3513;47.664;9.162;2022-12-18T13:41:20;89.03;;;37.35;;
6947;SDS011;3513;47.664;9.162;2022-12-18T13:43:48;93.88;;;35.83;;
6947;SDS011;3513;47.664;9.162;2022-12-18T13:46:23;95.78;;;38.70;;
6947;SDS011;3513;47.664;9.162;2022-12-18T13:51:46;98.80;;;37.42;;
6947;SDS011;3513;47.664;9.162;2022-12-18T13:54:31;89.68;;;35.63;;
6947;SDS011;3513;47.664;9.162;2022-12-18T13:57:04;86.57;;;35.80;;
6947;SDS011;3513;47.664;9.162;2022-12-18T13:59:38;117.22;;;46.50;;
6947;SDS011;3513;47.664;9.162;2022-12-18T14:02:18;133.63;;;56.40;;
6947;SDS011;3513;47.664;9.162;2022-12-18T14:04:48;101.55;;;41.38;;
6947;SDS011;3513;47.664;9.162;2022-12-18T14:07:21;111.53;;;39.35;;
6947;SDS011;3513;47.664;9.162;2022-12-18T14:09:53;90.68;;;36.38;;
6947;SDS011;3513;47.664;9.162;2022-12-18T14:12:26;82.45;;;33.75;;
6947;SDS011;3513;47.664;9.162;2022-12-18T14:20:52;93.85;;;37.85;;
6947;SDS011;3513;47.664;9.162;2022-12-18T14:23:31;89.25;;;36.05;;
6947;SDS011;3513;47.664;9.162;2022-12-18T14:25:58;91.70;;;37.40;;
6947;SDS011;3513;47.664;9.162;2022-12-18T14:28:24;85.93;;;34.85;;
6947;SDS011;3513;47.664;9.162;2022-12-18T14:30:51;88.07;;;33.92;;
6947;SDS011;3513;47.664;9.162;2022-12-18T14:33:25;81.72;;;36.58;;
6947;SDS011;3513;47.664;9.162;2022-12-18T14:36:02;84.60;;;34.88;;
6947;SDS011;3513;47.664;9.162;2022-12-18T14:38:34;84.45;;;36.60;;
6947;SDS011;3513;47.664;9.162;2022-12-18T14:41:05;98.75;;;37.78;;
6947;SDS011;3513;47.664;9.162;2022-12-18T14:43:35;82.07;;;35.97;;
6947;SDS011;3513;47.664;9.162;2022-12-18T14:46:03;93.25;;;34.65;;
6947;SDS011;3513;47.664;9.162;2022-12-18T14:48:40;100.07;;;36.88;;
6947;SDS011;3513;47.664;9.162;2022-12-18T14:53:49;95.15;;;33.97;;
6947;SDS011;3513;47.664;9.162;2022-12-18T14:56:24;99.30;;;38.58;;
6947;SDS011;3513;47.664;9.162;2022-12-18T15:04:43;91.38;;;34.90;;
6947;SDS011;3513;47.664;9.162;2022-12-18T15:09:39;94.80;;;36.50;;
6947;SDS011;3513;47.664;9.162;2022-12-18T15:12:24;92.95;;;34.90;;
6947;SDS011;3513;47.664;9.162;2022-12-18T15:14:57;83.35;;;36.25;;
6947;SDS011;3513;47.664;9.162;2022-12-18T15:17:23;85.83;;;36.93;;
6947;SDS011;3513;47.664;9.162;2022-12-18T15:19:50;82.30;;;36.03;;
6947;SDS011;3513;47.664;9.162;2022-12-18T15:22:19;85.30;;;35.42;;
6947;SDS011;3513;47.664;9.162;2022-12-18T15:24:46;94.65;;;35.63;;
6947;SDS011;3513;47.664;9.162;2022-12-18T15:32:43;90.95;;;37.10;;
6947;SDS011;3513;47.664;9.162;2022-12-18T15:37:48;79.82;;;34.95;;
6947;SDS011;3513;47.664;9.162;2022-12-18T15:40:16;101.55;;;39.85;;
6947;SDS011;3513;47.664;9.162;2022-12-18T15:42:44;91.05;;;36.95;;
6947;SDS011;3513;47.664;9.162;2022-12-18T15:45:29;90.22;;;37.88;;
6947;SDS011;3513;47.664;9.162;2022-12-18T15:47:55;104.27;;;40.00;;
6947;SDS011;3513;47.664;9.162;2022-12-18T15:50:24;93.60;;;38.90;;
6947;SDS011;3513;47.664;9.162;2022-12-18T15:52:51;103.00;;;39.28;;
6947;SDS011;3513;47.664;9.162;2022-12-18T15:55:41;91.50;;;37.45;;
6947;SDS011;3513;47.664;9.162;2022-12-18T15:58:29;102.18;;;39.10;;
6947;SDS011;3513;47.664;9.162;2022-12-18T16:00:55;101.82;;;41.67;;
6947;SDS011;3513;47.664;9.162;2022-12-18T16:03:34;90.90;;;38.60;;
6947;SDS011;3513;47.664;9.162;2022-12-18T16:06:02;99.55;;;37.38;;
6947;SDS011;3513;47.664;9.162;2022-12-18T16:09:06;83.65;;;35.60;;
6947;SDS011;3513;47.664;9.162;2022-12-18T16:11:33;90.60;;;38.05;;
6947;SDS011;3513;47.664;9.162;2022-12-18T16:16:57;95.53;;;36.60;;
6947;SDS011;3513;47.664;9.162;2022-12-18T16:19:25;91.60;;;37.08;;
6947;SDS011;3513;47.664;9.162;2022-12-18T16:21:52;102.40;;;43.65;;
6947;SDS011;3513;47.664;9.162;2022-12-18T16:24:22;103.70;;;40.90;;
6947;SDS011;3513;47.664;9.162;2022-12-18T16:26:51;113.07;;;46.45;;
6947;SDS011;3513;47.664;9.162;2022-12-18T16:29:22;104.78;;;41.00;;
6947;SDS011;3513;47.664;9.162;2022-12-18T16:31:52;95.78;;;37.95;;
6947;SDS011;3513;47.664;9.162;2022-12-18T16:34:20;108.45;;;43.42;;
6947;SDS011;3513;47.664;9.162;2022-12-18T16:36:57;98.55;;;39.42;;
6947;SDS011;3513;47.664;9.162;2022-12-18T16:39:28;106.70;;;43.42;;
6947;SDS011;3513;47.664;9.162;2022-12-18T16:42:13;97.03;;;38.30;;
6947;SDS011;3513;47.664;9.162;2022-12-18T16:44:44;103.13;;;43.75;;
6947;SDS011;3513;47.664;9.162;2022-12-18T16:47:11;120.38;;;49.00;;
6947;SDS011;3513;47.664;9.162;2022-12-18T16:49:37;97.80;;;40.40;;
6947;SDS011;3513;47.664;9.162;2022-12-18T16:52:06;110.85;;;41.15;;
6947;SDS011;3513;47.664;9.162;2022-12-18T16:54:36;106.40;;;42.88;;
6947;SDS011;3513;47.664;9.162;2022-12-18T16:57:02;109.00;;;41.63;;
6947;SDS011;3513;47.664;9.162;2022-12-18T16:59:30;107.40;;;43.90;;
6947;SDS011;3513;47.664;9.162;2022-12-18T17:02:05;116.72;;;44.30;;
6947;SDS011;3513;47.664;9.162;2022-12-18T17:04:37;107.55;;;42.10;;